• Join FlightAware (Why Join?)
  • Login
  • US Flag 
02:18AM EDT


 

Airport Tracker/Info


-or-


 

Live Flight TrackerFlight Track Log ✈ BER6771 ✈ 09-Apr-2013 ✈ EDDN / NUE - EDDL / DUS

Flight Track Log - Related Links

Times and Time Zones

All times are in EDT time to prevent confusion due to time zone crossing. See the BER6771 flight status page for this flight to view local times or setup timezone preferences in your user account.

Time Position Orientation Groundspeed Altitude Reporting Facility
EDT Latitude Longitude Course Direction KTS MPH feet Rate Location/Type
01:27AM 50.1686 9.5469 305° West  Level Estimated
01:28AM 50.2098 9.4498 304° West  Level Estimated
01:29AM 50.2509 9.3525 303° West  Level Estimated
01:30AM 50.2920 9.2550 303° West  Level Estimated
01:31AM 50.3329 9.1574 303° West  Level Estimated
01:32AM 50.3738 9.0596 303° West  Level Estimated
01:33AM 50.4146 8.9617 303° West  Level Estimated
01:34AM 50.4553 8.8635 303° West  Level Estimated
01:35AM 50.4959 8.7653 303° West  Level Estimated
01:36AM 50.5365 8.6668 303° West  Level Estimated
01:37AM 50.5769 8.5682 303° West  Level Estimated
01:38AM 50.6173 8.4694 303° West  Level Estimated
01:39AM 50.6576 8.3704 303° West  Level Estimated
01:40AM 50.6978 8.2712 303° West  Level Estimated
01:41AM 50.7379 8.1719 303° West  Level Estimated
01:42AM 50.7780 8.0725 303° West  Level Estimated
01:43AM 50.8179 7.9728 302° West  Level Estimated
01:44AM 50.8578 7.8730 302° West  Level Estimated
01:45AM 50.8975 7.7730 302° West  Level Estimated
01:46AM 50.9372 7.6728 302° West  Level Estimated
01:47AM 50.9769 7.5725 302° West  Level Estimated
01:48AM 51.0164 7.4720 302° West  Level Estimated
01:49AM 51.0558 7.3713 302° West  Level Estimated
01:50AM 51.0952 7.2705 302° West  Level Estimated
01:51AM 51.1344 7.1695 302° West  Level Estimated
01:52AM 51.1736 7.0683 302° West  Level Estimated
01:53AM 51.2127 6.9669 302° West  Level Estimated
01:54AM 51.2517 6.8654 302° West  Level Estimated
01:55AM 51.2895 6.7668 301° West  Level Estimated
01:56AM 51.2895 6.7668 314° West  Level Estimated
01:57AM 51.2895 6.7668 46° Northeast  Level Estimated
01:58AM 51.2895 6.7668 314° West  Level Estimated
01:59AM 51.2895 6.7668 46° Northeast  Level Estimated
02:00AM 51.2895 6.7668 314° West  Level Estimated
02:01AM 51.2895 6.7668 46° Northeast  Level Estimated
02:02AM 51.2895 6.7668 314° West  Level Estimated
02:03AM 51.2895 6.7668 46° Northeast  Level Estimated
02:04AM 51.2895 6.7668 314° West  Level Estimated
02:05AM 51.2895 6.7668 46° Northeast  Level Estimated
02:06AM 51.2895 6.7668 314° West  Level Estimated
02:07AM 51.2895 6.7668 46° Northeast  Level Estimated
02:08AM 51.2895 6.7668 314° West  Level Estimated
02:09AM 51.2895 6.7668 46° Northeast  Level Estimated
02:10AM 51.2895 6.7668 314° West  Level Estimated
02:11AM 51.2895 6.7668 46° Northeast  Level Estimated